sensor_id;sensor_type;location;lat;lon;timestamp;P1;durP1;ratioP1;P2;durP2;ratioP2
56122;SDS011;42426;46.104;19.656;2023-03-31T00:01:03;7.97;;;4.85;;
56122;SDS011;42426;46.104;19.656;2023-03-31T00:03:29;7.50;;;4.82;;
56122;SDS011;42426;46.104;19.656;2023-03-31T00:05:59;7.63;;;5.65;;
56122;SDS011;42426;46.104;19.656;2023-03-31T00:08:26;7.18;;;4.78;;
56122;SDS011;42426;46.104;19.656;2023-03-31T00:10:56;7.57;;;4.45;;
56122;SDS011;42426;46.104;19.656;2023-03-31T00:13:24;8.68;;;5.43;;
56122;SDS011;42426;46.104;19.656;2023-03-31T00:15:54;7.50;;;5.65;;
56122;SDS011;42426;46.104;19.656;2023-03-31T00:18:25;8.20;;;5.13;;
56122;SDS011;42426;46.104;19.656;2023-03-31T00:20:52;7.22;;;5.40;;
56122;SDS011;42426;46.104;19.656;2023-03-31T00:23:18;6.20;;;4.82;;
56122;SDS011;42426;46.104;19.656;2023-03-31T00:25:52;8.20;;;4.88;;
56122;SDS011;42426;46.104;19.656;2023-03-31T00:28:19;5.43;;;4.65;;
56122;SDS011;42426;46.104;19.656;2023-03-31T00:30:45;7.43;;;5.38;;
56122;SDS011;42426;46.104;19.656;2023-03-31T00:33:12;11.10;;;5.63;;
56122;SDS011;42426;46.104;19.656;2023-03-31T00:35:38;6.30;;;4.97;;
56122;SDS011;42426;46.104;19.656;2023-03-31T00:38:04;7.13;;;5.30;;
56122;SDS011;42426;46.104;19.656;2023-03-31T00:40:34;11.48;;;5.75;;
56122;SDS011;42426;46.104;19.656;2023-03-31T00:43:01;11.15;;;5.63;;
56122;SDS011;42426;46.104;19.656;2023-03-31T00:45:30;6.78;;;5.15;;
56122;SDS011;42426;46.104;19.656;2023-03-31T00:47:59;7.28;;;5.25;;
56122;SDS011;42426;46.104;19.656;2023-03-31T00:50:34;6.72;;;5.90;;
56122;SDS011;42426;46.104;19.656;2023-03-31T00:53:06;9.95;;;6.00;;
56122;SDS011;42426;46.104;19.656;2023-03-31T00:55:41;10.05;;;6.03;;
56122;SDS011;42426;46.104;19.656;2023-03-31T00:58:13;8.32;;;5.75;;
56122;SDS011;42426;46.104;19.656;2023-03-31T01:00:44;12.18;;;6.20;;
56122;SDS011;42426;46.104;19.656;2023-03-31T01:03:15;9.43;;;5.35;;
56122;SDS011;42426;46.104;19.656;2023-03-31T01:05:46;7.03;;;5.40;;
56122;SDS011;42426;46.104;19.656;2023-03-31T01:08:16;8.45;;;5.60;;
56122;SDS011;42426;46.104;19.656;2023-03-31T01:10:46;7.43;;;5.13;;
56122;SDS011;42426;46.104;19.656;2023-03-31T01:13:15;6.32;;;4.75;;
56122;SDS011;42426;46.104;19.656;2023-03-31T01:15:42;7.13;;;4.90;;
56122;SDS011;42426;46.104;19.656;2023-03-31T01:18:08;6.13;;;4.97;;
56122;SDS011;42426;46.104;19.656;2023-03-31T01:20:39;6.28;;;4.60;;
56122;SDS011;42426;46.104;19.656;2023-03-31T01:31:29;6.10;;;5.50;;
56122;SDS011;42426;46.104;19.656;2023-03-31T01:45:53;7.03;;;6.10;;
56122;SDS011;42426;46.104;19.656;2023-03-31T01:48:30;11.45;;;6.18;;
56122;SDS011;42426;46.104;19.656;2023-03-31T01:51:17;9.25;;;5.40;;
56122;SDS011;42426;46.104;19.656;2023-03-31T01:53:59;8.63;;;6.47;;
56122;SDS011;42426;46.104;19.656;2023-03-31T02:00:00;8.25;;;5.60;;
56122;SDS011;42426;46.104;19.656;2023-03-31T02:02:36;10.38;;;6.97;;
56122;SDS011;42426;46.104;19.656;2023-03-31T02:05:21;8.02;;;6.05;;
56122;SDS011;42426;46.104;19.656;2023-03-31T02:07:52;10.18;;;6.20;;
56122;SDS011;42426;46.104;19.656;2023-03-31T02:10:22;10.02;;;6.20;;
56122;SDS011;42426;46.104;19.656;2023-03-31T02:12:50;12.45;;;7.03;;
56122;SDS011;42426;46.104;19.656;2023-03-31T02:15:21;9.65;;;6.82;;
56122;SDS011;42426;46.104;19.656;2023-03-31T02:20:20;8.98;;;5.95;;
56122;SDS011;42426;46.104;19.656;2023-03-31T02:22:51;8.38;;;6.10;;
56122;SDS011;42426;46.104;19.656;2023-03-31T02:25:21;8.63;;;5.70;;
56122;SDS011;42426;46.104;19.656;2023-03-31T02:27:52;6.80;;;5.82;;
56122;SDS011;42426;46.104;19.656;2023-03-31T02:30:22;9.43;;;5.30;;
56122;SDS011;42426;46.104;19.656;2023-03-31T02:32:53;9.40;;;5.13;;
56122;SDS011;42426;46.104;19.656;2023-03-31T02:35:20;7.97;;;5.47;;
56122;SDS011;42426;46.104;19.656;2023-03-31T02:37:47;8.20;;;5.88;;
56122;SDS011;42426;46.104;19.656;2023-03-31T02:40:19;9.75;;;5.60;;
56122;SDS011;42426;46.104;19.656;2023-03-31T02:42:46;8.98;;;5.72;;
56122;SDS011;42426;46.104;19.656;2023-03-31T02:48:04;12.77;;;5.90;;
56122;SDS011;42426;46.104;19.656;2023-03-31T02:50:34;13.18;;;5.93;;
56122;SDS011;42426;46.104;19.656;2023-03-31T03:02:09;11.32;;;7.68;;
56122;SDS011;42426;46.104;19.656;2023-03-31T03:10:06;10.35;;;6.95;;
56122;SDS011;42426;46.104;19.656;2023-03-31T03:15:49;9.63;;;6.28;;
56122;SDS011;42426;46.104;19.656;2023-03-31T03:18:25;6.78;;;5.35;;
56122;SDS011;42426;46.104;19.656;2023-03-31T03:20:52;9.82;;;5.43;;
56122;SDS011;42426;46.104;19.656;2023-03-31T03:23:17;11.25;;;7.15;;
56122;SDS011;42426;46.104;19.656;2023-03-31T03:25:45;10.38;;;6.63;;
56122;SDS011;42426;46.104;19.656;2023-03-31T03:28:11;7.53;;;6.30;;
56122;SDS011;42426;46.104;19.656;2023-03-31T03:30:37;13.88;;;7.95;;
56122;SDS011;42426;46.104;19.656;2023-03-31T03:33:04;11.77;;;7.65;;
56122;SDS011;42426;46.104;19.656;2023-03-31T03:35:31;10.55;;;7.63;;
56122;SDS011;42426;46.104;19.656;2023-03-31T03:37:59;16.65;;;8.38;;
56122;SDS011;42426;46.104;19.656;2023-03-31T03:40:25;14.13;;;8.00;;
56122;SDS011;42426;46.104;19.656;2023-03-31T03:42:51;13.35;;;9.90;;
56122;SDS011;42426;46.104;19.656;2023-03-31T03:45:16;14.07;;;8.05;;
56122;SDS011;42426;46.104;19.656;2023-03-31T03:47:42;12.70;;;7.47;;
56122;SDS011;42426;46.104;19.656;2023-03-31T03:50:08;10.95;;;6.65;;
56122;SDS011;42426;46.104;19.656;2023-03-31T03:52:36;10.60;;;7.22;;
56122;SDS011;42426;46.104;19.656;2023-03-31T03:57:34;12.93;;;7.25;;
56122;SDS011;42426;46.104;19.656;2023-03-31T04:00:00;11.05;;;7.18;;
56122;SDS011;42426;46.104;19.656;2023-03-31T04:02:28;15.13;;;8.52;;
56122;SDS011;42426;46.104;19.656;2023-03-31T04:04:53;9.75;;;7.15;;
56122;SDS011;42426;46.104;19.656;2023-03-31T04:07:19;11.38;;;6.68;;
56122;SDS011;42426;46.104;19.656;2023-03-31T04:09:46;9.77;;;6.03;;
56122;SDS011;42426;46.104;19.656;2023-03-31T04:12:12;12.85;;;8.27;;
56122;SDS011;42426;46.104;19.656;2023-03-31T04:14:37;18.23;;;10.55;;
56122;SDS011;42426;46.104;19.656;2023-03-31T04:17:03;27.00;;;19.17;;
56122;SDS011;42426;46.104;19.656;2023-03-31T04:19:29;42.20;;;30.20;;
56122;SDS011;42426;46.104;19.656;2023-03-31T04:21:55;45.30;;;31.65;;
56122;SDS011;42426;46.104;19.656;2023-03-31T04:24:26;31.05;;;22.23;;
56122;SDS011;42426;46.104;19.656;2023-03-31T04:26:57;28.25;;;21.17;;
56122;SDS011;42426;46.104;19.656;2023-03-31T04:29:24;20.75;;;14.30;;
56122;SDS011;42426;46.104;19.656;2023-03-31T04:31:54;16.92;;;12.20;;
56122;SDS011;42426;46.104;19.656;2023-03-31T04:34:23;20.83;;;14.15;;
56122;SDS011;42426;46.104;19.656;2023-03-31T04:36:50;21.40;;;14.57;;
56122;SDS011;42426;46.104;19.656;2023-03-31T04:39:20;19.33;;;13.57;;
56122;SDS011;42426;46.104;19.656;2023-03-31T04:41:54;21.52;;;14.27;;
56122;SDS011;42426;46.104;19.656;2023-03-31T04:44:21;17.67;;;11.65;;
56122;SDS011;42426;46.104;19.656;2023-03-31T04:46:47;17.23;;;11.57;;
56122;SDS011;42426;46.104;19.656;2023-03-31T04:49:13;15.35;;;9.75;;
56122;SDS011;42426;46.104;19.656;2023-03-31T04:51:39;12.48;;;9.25;;
56122;SDS011;42426;46.104;19.656;2023-03-31T04:54:05;12.05;;;9.07;;
56122;SDS011;42426;46.104;19.656;2023-03-31T04:56:31;14.27;;;9.25;;
56122;SDS011;42426;46.104;19.656;2023-03-31T04:58:58;16.52;;;10.35;;
56122;SDS011;42426;46.104;19.656;2023-03-31T05:01:23;14.77;;;9.57;;
56122;SDS011;42426;46.104;19.656;2023-03-31T05:03:49;14.73;;;11.30;;
56122;SDS011;42426;46.104;19.656;2023-03-31T05:06:15;14.00;;;10.50;;
56122;SDS011;42426;46.104;19.656;2023-03-31T05:08:41;20.92;;;11.93;;
56122;SDS011;42426;46.104;19.656;2023-03-31T05:11:07;16.25;;;11.05;;
56122;SDS011;42426;46.104;19.656;2023-03-31T05:13:33;15.15;;;11.15;;
56122;SDS011;42426;46.104;19.656;2023-03-31T05:16:04;23.00;;;11.32;;
56122;SDS011;42426;46.104;19.656;2023-03-31T05:18:31;15.60;;;11.32;;
56122;SDS011;42426;46.104;19.656;2023-03-31T05:20:57;15.57;;;9.40;;
56122;SDS011;42426;46.104;19.656;2023-03-31T05:23:35;15.88;;;9.20;;
56122;SDS011;42426;46.104;19.656;2023-03-31T05:26:07;18.42;;;11.07;;
56122;SDS011;42426;46.104;19.656;2023-03-31T05:28:34;19.63;;;12.45;;
56122;SDS011;42426;46.104;19.656;2023-03-31T05:31:00;21.35;;;12.13;;
56122;SDS011;42426;46.104;19.656;2023-03-31T05:33:28;16.48;;;10.18;;
56122;SDS011;42426;46.104;19.656;2023-03-31T05:35:54;15.57;;;9.25;;
56122;SDS011;42426;46.104;19.656;2023-03-31T05:38:20;13.55;;;9.25;;
56122;SDS011;42426;46.104;19.656;2023-03-31T05:40:46;13.98;;;8.70;;
56122;SDS011;42426;46.104;19.656;2023-03-31T05:43:12;14.82;;;8.88;;
56122;SDS011;42426;46.104;19.656;2023-03-31T05:45:38;18.00;;;9.13;;
56122;SDS011;42426;46.104;19.656;2023-03-31T05:48:04;12.57;;;8.90;;
56122;SDS011;42426;46.104;19.656;2023-03-31T05:50:31;10.07;;;7.85;;
56122;SDS011;42426;46.104;19.656;2023-03-31T05:52:56;12.05;;;7.93;;
56122;SDS011;42426;46.104;19.656;2023-03-31T05:55:23;11.00;;;7.38;;
56122;SDS011;42426;46.104;19.656;2023-03-31T05:57:49;12.13;;;7.63;;
56122;SDS011;42426;46.104;19.656;2023-03-31T06:00:14;16.60;;;7.20;;
56122;SDS011;42426;46.104;19.656;2023-03-31T06:02:42;14.23;;;7.45;;
56122;SDS011;42426;46.104;19.656;2023-03-31T06:05:08;10.70;;;7.00;;
56122;SDS011;42426;46.104;19.656;2023-03-31T06:07:34;8.85;;;6.70;;
56122;SDS011;42426;46.104;19.656;2023-03-31T06:10:00;10.05;;;6.85;;
56122;SDS011;42426;46.104;19.656;2023-03-31T06:12:31;8.70;;;6.15;;
56122;SDS011;42426;46.104;19.656;2023-03-31T06:14:56;10.70;;;6.00;;
56122;SDS011;42426;46.104;19.656;2023-03-31T06:17:22;8.25;;;5.82;;
56122;SDS011;42426;46.104;19.656;2023-03-31T06:22:34;8.82;;;6.28;;
56122;SDS011;42426;46.104;19.656;2023-03-31T06:24:59;13.77;;;6.90;;
56122;SDS011;42426;46.104;19.656;2023-03-31T06:30:15;10.70;;;6.55;;
56122;SDS011;42426;46.104;19.656;2023-03-31T06:32:40;8.95;;;5.95;;
56122;SDS011;42426;46.104;19.656;2023-03-31T06:35:06;8.95;;;6.05;;
56122;SDS011;42426;46.104;19.656;2023-03-31T06:37:32;7.32;;;5.47;;
56122;SDS011;42426;46.104;19.656;2023-03-31T06:39:58;11.15;;;6.47;;
56122;SDS011;42426;46.104;19.656;2023-03-31T06:42:23;9.27;;;5.25;;
56122;SDS011;42426;46.104;19.656;2023-03-31T06:44:49;9.20;;;5.53;;
56122;SDS011;42426;46.104;19.656;2023-03-31T06:47:15;5.78;;;4.93;;
56122;SDS011;42426;46.104;19.656;2023-03-31T06:49:41;9.38;;;5.80;;
56122;SDS011;42426;46.104;19.656;2023-03-31T06:52:06;8.55;;;5.75;;
56122;SDS011;42426;46.104;19.656;2023-03-31T06:54:32;5.63;;;4.28;;
56122;SDS011;42426;46.104;19.656;2023-03-31T06:56:59;8.63;;;5.75;;
56122;SDS011;42426;46.104;19.656;2023-03-31T06:59:25;9.07;;;6.32;;
56122;SDS011;42426;46.104;19.656;2023-03-31T07:01:50;9.52;;;5.30;;
56122;SDS011;42426;46.104;19.656;2023-03-31T07:04:17;7.07;;;4.95;;
56122;SDS011;42426;46.104;19.656;2023-03-31T07:06:43;10.43;;;6.55;;
56122;SDS011;42426;46.104;19.656;2023-03-31T07:09:09;13.60;;;5.90;;
56122;SDS011;42426;46.104;19.656;2023-03-31T07:11:35;6.97;;;4.85;;
56122;SDS011;42426;46.104;19.656;2023-03-31T07:14:01;7.30;;;5.80;;
56122;SDS011;42426;46.104;19.656;2023-03-31T07:16:26;7.47;;;4.90;;
56122;SDS011;42426;46.104;19.656;2023-03-31T07:18:52;7.50;;;5.05;;
56122;SDS011;42426;46.104;19.656;2023-03-31T07:21:23;8.07;;;4.93;;
56122;SDS011;42426;46.104;19.656;2023-03-31T07:23:50;9.35;;;5.03;;
56122;SDS011;42426;46.104;19.656;2023-03-31T07:26:16;8.40;;;4.80;;
56122;SDS011;42426;46.104;19.656;2023-03-31T07:28:42;7.68;;;4.50;;
56122;SDS011;42426;46.104;19.656;2023-03-31T07:31:11;8.95;;;5.55;;
56122;SDS011;42426;46.104;19.656;2023-03-31T07:33:37;6.57;;;4.40;;
56122;SDS011;42426;46.104;19.656;2023-03-31T07:36:04;11.40;;;6.40;;
56122;SDS011;42426;46.104;19.656;2023-03-31T07:38:31;7.82;;;5.43;;
56122;SDS011;42426;46.104;19.656;2023-03-31T07:40:57;10.57;;;6.82;;
56122;SDS011;42426;46.104;19.656;2023-03-31T07:43:22;10.00;;;5.60;;
56122;SDS011;42426;46.104;19.656;2023-03-31T07:45:48;7.93;;;4.82;;
56122;SDS011;42426;46.104;19.656;2023-03-31T07:48:14;7.22;;;4.50;;
56122;SDS011;42426;46.104;19.656;2023-03-31T07:50:40;8.07;;;4.97;;
56122;SDS011;42426;46.104;19.656;2023-03-31T07:53:06;9.15;;;4.90;;
56122;SDS011;42426;46.104;19.656;2023-03-31T07:55:32;8.68;;;4.80;;
56122;SDS011;42426;46.104;19.656;2023-03-31T07:57:59;10.02;;;5.63;;
56122;SDS011;42426;46.104;19.656;2023-03-31T08:00:25;6.43;;;5.13;;
56122;SDS011;42426;46.104;19.656;2023-03-31T08:02:51;8.30;;;5.32;;
56122;SDS011;42426;46.104;19.656;2023-03-31T08:05:17;9.23;;;4.50;;
56122;SDS011;42426;46.104;19.656;2023-03-31T08:07:45;5.97;;;4.13;;
56122;SDS011;42426;46.104;19.656;2023-03-31T08:10:14;9.32;;;4.57;;
56122;SDS011;42426;46.104;19.656;2023-03-31T08:12:42;7.53;;;3.97;;
56122;SDS011;42426;46.104;19.656;2023-03-31T08:15:08;7.40;;;4.63;;
56122;SDS011;42426;46.104;19.656;2023-03-31T08:17:36;11.27;;;5.10;;
56122;SDS011;42426;46.104;19.656;2023-03-31T08:20:03;6.95;;;4.85;;
56122;SDS011;42426;46.104;19.656;2023-03-31T08:22:33;7.20;;;4.28;;
56122;SDS011;42426;46.104;19.656;2023-03-31T08:24:58;12.00;;;4.40;;
56122;SDS011;42426;46.104;19.656;2023-03-31T08:27:24;6.85;;;4.65;;
56122;SDS011;42426;46.104;19.656;2023-03-31T08:29:50;6.50;;;4.28;;
56122;SDS011;42426;46.104;19.656;2023-03-31T08:32:16;8.20;;;5.20;;
56122;SDS011;42426;46.104;19.656;2023-03-31T08:34:41;9.95;;;5.90;;
56122;SDS011;42426;46.104;19.656;2023-03-31T08:37:14;8.90;;;5.85;;
56122;SDS011;42426;46.104;19.656;2023-03-31T08:39:40;14.60;;;7.93;;
56122;SDS011;42426;46.104;19.656;2023-03-31T08:42:08;9.35;;;6.13;;
56122;SDS011;42426;46.104;19.656;2023-03-31T08:47:42;8.07;;;5.20;;
56122;SDS011;42426;46.104;19.656;2023-03-31T08:50:14;7.60;;;5.40;;
56122;SDS011;42426;46.104;19.656;2023-03-31T08:52:43;8.20;;;4.43;;
56122;SDS011;42426;46.104;19.656;2023-03-31T08:55:38;6.55;;;4.70;;
56122;SDS011;42426;46.104;19.656;2023-03-31T09:01:04;14.23;;;4.53;;
56122;SDS011;42426;46.104;19.656;2023-03-31T09:12:00;6.00;;;4.18;;
56122;SDS011;42426;46.104;19.656;2023-03-31T09:19:46;5.15;;;4.13;;
56122;SDS011;42426;46.104;19.656;2023-03-31T09:22:26;10.23;;;5.60;;
56122;SDS011;42426;46.104;19.656;2023-03-31T09:27:30;8.32;;;4.72;;
56122;SDS011;42426;46.104;19.656;2023-03-31T09:30:09;9.40;;;5.22;;
56122;SDS011;42426;46.104;19.656;2023-03-31T09:32:41;7.68;;;4.43;;
56122;SDS011;42426;46.104;19.656;2023-03-31T09:35:14;6.45;;;4.65;;
56122;SDS011;42426;46.104;19.656;2023-03-31T09:37:45;8.15;;;4.45;;
56122;SDS011;42426;46.104;19.656;2023-03-31T09:40:15;7.97;;;3.88;;
56122;SDS011;42426;46.104;19.656;2023-03-31T09:42:59;7.97;;;3.95;;
56122;SDS011;42426;46.104;19.656;2023-03-31T09:45:28;6.13;;;3.70;;
56122;SDS011;42426;46.104;19.656;2023-03-31T09:48:11;5.75;;;4.25;;
56122;SDS011;42426;46.104;19.656;2023-03-31T09:50:50;11.43;;;4.13;;
56122;SDS011;42426;46.104;19.656;2023-03-31T09:53:32;7.10;;;4.20;;
56122;SDS011;42426;46.104;19.656;2023-03-31T09:56:10;6.78;;;4.43;;
56122;SDS011;42426;46.104;19.656;2023-03-31T09:58:42;10.13;;;4.07;;
56122;SDS011;42426;46.104;19.656;2023-03-31T10:01:11;8.48;;;3.72;;
56122;SDS011;42426;46.104;19.656;2023-03-31T10:03:51;7.20;;;3.95;;
56122;SDS011;42426;46.104;19.656;2023-03-31T10:06:19;7.75;;;4.30;;
56122;SDS011;42426;46.104;19.656;2023-03-31T10:11:22;6.28;;;3.90;;
56122;SDS011;42426;46.104;19.656;2023-03-31T10:14:04;10.00;;;4.38;;
56122;SDS011;42426;46.104;19.656;2023-03-31T10:16:42;7.35;;;4.53;;
56122;SDS011;42426;46.104;19.656;2023-03-31T10:19:12;8.13;;;4.13;;
56122;SDS011;42426;46.104;19.656;2023-03-31T10:21:47;7.07;;;4.57;;
56122;SDS011;42426;46.104;19.656;2023-03-31T10:24:19;7.22;;;4.07;;
56122;SDS011;42426;46.104;19.656;2023-03-31T10:26:49;7.75;;;3.85;;
56122;SDS011;42426;46.104;19.656;2023-03-31T10:29:51;5.57;;;4.47;;
56122;SDS011;42426;46.104;19.656;2023-03-31T10:34:40;7.40;;;4.05;;
56122;SDS011;42426;46.104;19.656;2023-03-31T10:37:07;7.50;;;4.47;;
56122;SDS011;42426;46.104;19.656;2023-03-31T10:39:38;5.35;;;3.35;;
56122;SDS011;42426;46.104;19.656;2023-03-31T10:42:05;6.45;;;4.07;;
56122;SDS011;42426;46.104;19.656;2023-03-31T10:44:33;8.55;;;4.28;;
56122;SDS011;42426;46.104;19.656;2023-03-31T10:47:05;8.68;;;4.32;;
56122;SDS011;42426;46.104;19.656;2023-03-31T10:49:43;6.10;;;4.53;;
56122;SDS011;42426;46.104;19.656;2023-03-31T10:54:47;11.63;;;3.80;;
56122;SDS011;42426;46.104;19.656;2023-03-31T10:57:16;7.10;;;4.35;;
56122;SDS011;42426;46.104;19.656;2023-03-31T11:10:23;7.60;;;4.10;;
56122;SDS011;42426;46.104;19.656;2023-03-31T11:13:09;3.88;;;3.47;;
56122;SDS011;42426;46.104;19.656;2023-03-31T11:43:38;7.18;;;3.85;;
56122;SDS011;42426;46.104;19.656;2023-03-31T11:46:18;7.28;;;3.80;;
56122;SDS011;42426;46.104;19.656;2023-03-31T11:48:56;8.93;;;3.60;;
56122;SDS011;42426;46.104;19.656;2023-03-31T11:51:31;7.35;;;3.58;;
56122;SDS011;42426;46.104;19.656;2023-03-31T11:54:03;4.90;;;3.38;;
56122;SDS011;42426;46.104;19.656;2023-03-31T11:56:36;5.75;;;3.63;;
56122;SDS011;42426;46.104;19.656;2023-03-31T11:59:03;5.82;;;3.72;;
56122;SDS011;42426;46.104;19.656;2023-03-31T12:06:44;4.70;;;3.22;;
56122;SDS011;42426;46.104;19.656;2023-03-31T12:12:08;5.72;;;3.63;;
56122;SDS011;42426;46.104;19.656;2023-03-31T12:14:47;11.80;;;4.18;;
56122;SDS011;42426;46.104;19.656;2023-03-31T12:17:18;9.27;;;5.60;;
56122;SDS011;42426;46.104;19.656;2023-03-31T12:19:51;9.23;;;3.90;;
56122;SDS011;42426;46.104;19.656;2023-03-31T12:22:26;9.13;;;4.07;;
56122;SDS011;42426;46.104;19.656;2023-03-31T12:24:58;5.65;;;3.47;;
56122;SDS011;42426;46.104;19.656;2023-03-31T12:27:37;6.57;;;3.70;;
56122;SDS011;42426;46.104;19.656;2023-03-31T12:30:09;10.65;;;3.92;;
56122;SDS011;42426;46.104;19.656;2023-03-31T12:32:46;6.40;;;3.30;;
56122;SDS011;42426;46.104;19.656;2023-03-31T12:35:24;10.68;;;3.70;;
56122;SDS011;42426;46.104;19.656;2023-03-31T12:38:02;5.10;;;3.45;;
56122;SDS011;42426;46.104;19.656;2023-03-31T12:46:13;6.63;;;3.60;;
56122;SDS011;42426;46.104;19.656;2023-03-31T12:48:51;7.45;;;4.10;;
56122;SDS011;42426;46.104;19.656;2023-03-31T12:59:35;4.10;;;3.58;;
56122;SDS011;42426;46.104;19.656;2023-03-31T13:04:34;4.65;;;3.17;;
56122;SDS011;42426;46.104;19.656;2023-03-31T13:07:01;5.78;;;3.20;;
56122;SDS011;42426;46.104;19.656;2023-03-31T13:09:44;7.57;;;3.45;;
56122;SDS011;42426;46.104;19.656;2023-03-31T13:12:13;6.75;;;3.45;;
56122;SDS011;42426;46.104;19.656;2023-03-31T13:14:41;10.23;;;3.75;;
56122;SDS011;42426;46.104;19.656;2023-03-31T13:17:19;10.68;;;4.53;;
56122;SDS011;42426;46.104;19.656;2023-03-31T13:19:51;6.22;;;3.40;;
56122;SDS011;42426;46.104;19.656;2023-03-31T13:22:31;6.22;;;4.05;;
56122;SDS011;42426;46.104;19.656;2023-03-31T13:27:49;3.50;;;3.20;;
56122;SDS011;42426;46.104;19.656;2023-03-31T13:35:37;11.40;;;3.58;;
56122;SDS011;42426;46.104;19.656;2023-03-31T13:38:30;6.88;;;4.20;;
56122;SDS011;42426;46.104;19.656;2023-03-31T14:00:33;7.05;;;3.80;;
56122;SDS011;42426;46.104;19.656;2023-03-31T14:08:51;7.13;;;4.00;;
56122;SDS011;42426;46.104;19.656;2023-03-31T14:11:25;4.68;;;3.78;;
56122;SDS011;42426;46.104;19.656;2023-03-31T14:16:28;11.40;;;4.32;;
56122;SDS011;42426;46.104;19.656;2023-03-31T14:19:06;11.85;;;4.40;;
56122;SDS011;42426;46.104;19.656;2023-03-31T14:21:44;6.25;;;3.60;;
56122;SDS011;42426;46.104;19.656;2023-03-31T14:24:25;4.85;;;4.00;;
56122;SDS011;42426;46.104;19.656;2023-03-31T14:38:09;7.75;;;3.70;;
56122;SDS011;42426;46.104;19.656;2023-03-31T14:40:45;5.97;;;3.70;;
56122;SDS011;42426;46.104;19.656;2023-03-31T14:43:20;6.05;;;3.38;;
56122;SDS011;42426;46.104;19.656;2023-03-31T14:45:56;5.88;;;4.00;;
56122;SDS011;42426;46.104;19.656;2023-03-31T14:48:23;8.20;;;3.47;;
56122;SDS011;42426;46.104;19.656;2023-03-31T14:50:48;4.10;;;3.67;;
56122;SDS011;42426;46.104;19.656;2023-03-31T14:53:22;7.05;;;3.95;;
56122;SDS011;42426;46.104;19.656;2023-03-31T14:55:48;9.93;;;4.25;;
56122;SDS011;42426;46.104;19.656;2023-03-31T14:58:25;8.32;;;4.95;;
56122;SDS011;42426;46.104;19.656;2023-03-31T15:01:17;8.45;;;3.78;;
56122;SDS011;42426;46.104;19.656;2023-03-31T15:03:47;4.65;;;3.67;;
56122;SDS011;42426;46.104;19.656;2023-03-31T15:06:15;10.48;;;5.50;;
56122;SDS011;42426;46.104;19.656;2023-03-31T15:08:41;6.22;;;3.67;;
56122;SDS011;42426;46.104;19.656;2023-03-31T15:11:08;7.22;;;4.07;;
56122;SDS011;42426;46.104;19.656;2023-03-31T15:13:42;13.50;;;8.02;;
56122;SDS011;42426;46.104;19.656;2023-03-31T15:16:29;8.35;;;4.55;;
56122;SDS011;42426;46.104;19.656;2023-03-31T15:19:04;6.07;;;4.32;;
56122;SDS011;42426;46.104;19.656;2023-03-31T15:21:35;7.22;;;4.45;;
56122;SDS011;42426;46.104;19.656;2023-03-31T15:24:03;9.07;;;4.63;;
56122;SDS011;42426;46.104;19.656;2023-03-31T15:26:31;5.93;;;4.72;;
56122;SDS011;42426;46.104;19.656;2023-03-31T15:29:14;8.65;;;3.95;;
56122;SDS011;42426;46.104;19.656;2023-03-31T15:31:58;8.25;;;5.45;;
56122;SDS011;42426;46.104;19.656;2023-03-31T15:34:25;7.97;;;6.10;;
56122;SDS011;42426;46.104;19.656;2023-03-31T15:36:57;12.48;;;7.65;;
56122;SDS011;42426;46.104;19.656;2023-03-31T15:39:24;9.27;;;5.30;;
56122;SDS011;42426;46.104;19.656;2023-03-31T15:41:52;6.60;;;4.88;;
56122;SDS011;42426;46.104;19.656;2023-03-31T15:44:28;7.43;;;5.15;;
56122;SDS011;42426;46.104;19.656;2023-03-31T15:47:05;10.13;;;4.78;;
56122;SDS011;42426;46.104;19.656;2023-03-31T15:49:36;8.93;;;5.45;;
56122;SDS011;42426;46.104;19.656;2023-03-31T15:55:01;12.95;;;7.00;;
56122;SDS011;42426;46.104;19.656;2023-03-31T15:57:49;8.18;;;5.20;;
56122;SDS011;42426;46.104;19.656;2023-03-31T16:03:23;9.23;;;5.70;;
56122;SDS011;42426;46.104;19.656;2023-03-31T16:05:57;11.75;;;6.93;;
56122;SDS011;42426;46.104;19.656;2023-03-31T16:08:40;13.68;;;8.27;;
56122;SDS011;42426;46.104;19.656;2023-03-31T16:13:51;17.42;;;9.30;;
56122;SDS011;42426;46.104;19.656;2023-03-31T16:16:20;18.02;;;9.40;;
56122;SDS011;42426;46.104;19.656;2023-03-31T16:18:50;15.43;;;9.15;;
56122;SDS011;42426;46.104;19.656;2023-03-31T16:21:28;14.45;;;9.90;;
56122;SDS011;42426;46.104;19.656;2023-03-31T16:23:59;14.90;;;9.00;;
56122;SDS011;42426;46.104;19.656;2023-03-31T16:26:26;18.88;;;10.38;;
56122;SDS011;42426;46.104;19.656;2023-03-31T16:28:53;24.55;;;14.02;;
56122;SDS011;42426;46.104;19.656;2023-03-31T16:31:42;23.10;;;14.20;;
56122;SDS011;42426;46.104;19.656;2023-03-31T16:34:09;25.10;;;15.27;;
56122;SDS011;42426;46.104;19.656;2023-03-31T16:36:35;25.95;;;17.13;;
56122;SDS011;42426;46.104;19.656;2023-03-31T16:39:01;26.27;;;14.32;;
56122;SDS011;42426;46.104;19.656;2023-03-31T16:41:29;21.02;;;13.43;;
56122;SDS011;42426;46.104;19.656;2023-03-31T16:43:56;17.92;;;10.10;;
56122;SDS011;42426;46.104;19.656;2023-03-31T16:46:22;19.95;;;11.13;;
56122;SDS011;42426;46.104;19.656;2023-03-31T16:48:49;13.57;;;10.20;;
56122;SDS011;42426;46.104;19.656;2023-03-31T16:51:15;20.45;;;10.25;;
56122;SDS011;42426;46.104;19.656;2023-03-31T16:53:42;17.65;;;10.77;;
56122;SDS011;42426;46.104;19.656;2023-03-31T16:56:08;21.83;;;11.68;;
56122;SDS011;42426;46.104;19.656;2023-03-31T16:58:34;22.38;;;11.55;;
56122;SDS011;42426;46.104;19.656;2023-03-31T17:01:02;20.10;;;9.38;;
56122;SDS011;42426;46.104;19.656;2023-03-31T17:03:28;19.50;;;12.32;;
56122;SDS011;42426;46.104;19.656;2023-03-31T17:05:54;37.55;;;20.98;;
56122;SDS011;42426;46.104;19.656;2023-03-31T17:08:22;29.55;;;18.42;;
56122;SDS011;42426;46.104;19.656;2023-03-31T17:10:58;26.45;;;18.30;;
56122;SDS011;42426;46.104;19.656;2023-03-31T17:13:26;21.30;;;14.95;;
56122;SDS011;42426;46.104;19.656;2023-03-31T17:15:52;26.23;;;16.23;;
56122;SDS011;42426;46.104;19.656;2023-03-31T17:18:19;20.48;;;13.00;;
56122;SDS011;42426;46.104;19.656;2023-03-31T17:20:45;22.58;;;13.65;;
56122;SDS011;42426;46.104;19.656;2023-03-31T17:23:10;24.65;;;16.10;;
56122;SDS011;42426;46.104;19.656;2023-03-31T17:25:36;25.38;;;15.93;;
56122;SDS011;42426;46.104;19.656;2023-03-31T17:28:03;27.55;;;16.80;;
56122;SDS011;42426;46.104;19.656;2023-03-31T17:30:29;22.40;;;14.02;;
56122;SDS011;42426;46.104;19.656;2023-03-31T17:32:56;21.90;;;13.95;;
56122;SDS011;42426;46.104;19.656;2023-03-31T17:35:23;24.25;;;15.27;;
56122;SDS011;42426;46.104;19.656;2023-03-31T17:37:49;32.97;;;17.58;;
56122;SDS011;42426;46.104;19.656;2023-03-31T17:40:18;29.95;;;17.77;;
56122;SDS011;42426;46.104;19.656;2023-03-31T17:42:44;44.38;;;24.58;;
56122;SDS011;42426;46.104;19.656;2023-03-31T17:45:11;42.47;;;20.20;;
56122;SDS011;42426;46.104;19.656;2023-03-31T17:47:39;29.55;;;16.45;;
56122;SDS011;42426;46.104;19.656;2023-03-31T17:50:06;39.10;;;22.05;;
56122;SDS011;42426;46.104;19.656;2023-03-31T17:52:33;37.42;;;21.33;;
56122;SDS011;42426;46.104;19.656;2023-03-31T17:54:59;39.13;;;20.50;;
56122;SDS011;42426;46.104;19.656;2023-03-31T17:57:29;24.63;;;16.83;;
56122;SDS011;42426;46.104;19.656;2023-03-31T17:59:55;26.27;;;17.25;;
56122;SDS011;42426;46.104;19.656;2023-03-31T18:02:21;25.67;;;16.83;;
56122;SDS011;42426;46.104;19.656;2023-03-31T18:04:48;26.13;;;15.32;;